Wilsondale, West Virginia
Current Conditions -  °F | °C
As of 11:35 AM on Sunday 21 Dec 2014 (Local Time) from KSJS Reporting Station
Clear Clear  
Wind Chill: 34°   Ceiling: Unl
Heat Index: 38°   Visibility: 10mi
Dew Point: 29°   Wind: 5mph
Humidity: 71%   Direction: 120°ESE
Pressure: 30.26"   Gusts: NA
Location:  37.95°N, 82.33°W
Report Text: KSJS 211635Z AUTO 12004KT 10SM CLR 03/M02 A3026 RMK AO2 T00331016
Loading
Personal Weather Stations






























Interactive Weather Map New forecast layout! Learn more

10-Day Weather Forecast

Advertisements
Track Severe Weather on mobile